createdAt,value
2023-04-05T04:04:00.486Z,5.57
2023-04-05T04:08:13.705Z,5.47
2023-04-05T04:12:25.726Z,5.13
2023-04-05T04:16:43.092Z,8.47
2023-04-05T04:21:11.003Z,8.87
2023-04-05T04:25:54.844Z,13.50
2023-04-05T04:30:32.908Z,11.67
2023-04-05T04:34:55.867Z,8.70
2023-04-05T04:39:44.604Z,7.70
2023-04-05T04:44:18.307Z,7.00
2023-04-05T04:48:54.352Z,8.27
2023-04-05T04:53:24.448Z,5.90
2023-04-05T04:57:43.917Z,9.50
2023-04-05T05:01:57.367Z,7.43
2023-04-05T05:06:09.070Z,7.33
2023-04-05T05:10:21.430Z,9.17
2023-04-05T05:14:33.143Z,13.93
2023-04-05T05:18:48.409Z,11.97
2023-04-05T05:23:01.456Z,14.60
2023-04-05T05:27:12.953Z,11.70
2023-04-05T05:31:24.737Z,12.83
2023-04-05T05:35:38.125Z,8.87
2023-04-05T05:39:49.849Z,7.73
2023-04-05T05:44:01.398Z,8.07
2023-04-05T05:48:13.022Z,8.43
2023-04-05T05:52:24.944Z,8.13
2023-04-05T05:56:37.739Z,7.73
2023-04-05T06:00:51.582Z,13.20
2023-04-05T06:05:04.312Z,15.63
2023-04-05T06:09:15.926Z,12.30
2023-04-05T06:13:27.470Z,14.90
2023-04-05T06:17:42.434Z,12.80
2023-04-05T06:21:55.139Z,9.40
2023-04-05T06:26:06.672Z,7.77
2023-04-05T06:30:18.213Z,10.63
2023-04-05T06:34:29.883Z,9.47
2023-04-05T06:38:41.493Z,10.93
2023-04-05T06:42:52.978Z,10.87
2023-04-05T06:47:08.303Z,27.57
2023-04-05T06:51:20.133Z,14.20
2023-04-05T06:55:32.254Z,15.65
2023-04-05T06:59:43.809Z,13.65
2023-04-05T07:03:55.594Z,19.42
2023-04-05T07:08:07.798Z,12.27
2023-04-05T07:12:19.303Z,17.38
2023-04-05T07:16:30.935Z,17.95
2023-04-05T07:20:43.186Z,18.42
2023-04-05T07:24:55.577Z,20.60
2023-04-05T07:29:08.531Z,12.18
2023-04-05T07:33:21.045Z,17.95
2023-04-05T07:37:32.685Z,15.18
2023-04-05T07:41:44.152Z,14.47
2023-04-05T07:46:02.290Z,7.75
2023-04-05T07:50:15.398Z,9.10
2023-04-05T07:54:27.133Z,9.60
2023-04-05T07:58:42.087Z,8.67
2023-04-05T08:02:53.784Z,9.33
2023-04-05T08:07:05.472Z,8.63
2023-04-05T08:11:17.050Z,9.20
2023-04-05T08:15:28.545Z,10.07
2023-04-05T08:19:40.243Z,7.53
2023-04-05T08:23:51.951Z,6.87
2023-04-05T08:28:03.599Z,7.03
2023-04-05T08:32:15.323Z,6.60
2023-04-05T08:36:27.196Z,9.03
2023-04-05T08:40:47.268Z,7.70
2023-04-05T08:45:04.103Z,5.30
2023-04-05T08:49:16.044Z,6.67
2023-04-05T08:53:28.255Z,5.83
2023-04-05T08:57:44.513Z,6.90
2023-04-05T09:02:32.810Z,6.87
2023-04-05T09:07:14.180Z,6.47
2023-04-05T09:11:26.126Z,5.80
2023-04-05T09:15:38.691Z,6.57
2023-04-05T09:19:50.553Z,5.17
2023-04-05T09:24:03.169Z,5.33
2023-04-05T09:28:19.671Z,4.43
2023-04-05T09:32:31.865Z,7.57
2023-04-05T09:36:46.705Z,6.10
2023-04-05T09:41:19.223Z,5.80
2023-04-05T09:45:44.832Z,7.15
2023-04-05T09:49:57.543Z,5.10
2023-04-05T09:54:10.950Z,4.97
2023-04-05T09:58:22.758Z,5.10
2023-04-05T10:02:39.507Z,5.82
2023-04-05T10:06:51.892Z,6.47
2023-04-05T10:11:06.157Z,6.32
2023-04-05T10:15:19.338Z,5.95
2023-04-05T10:19:40.024Z,6.90
2023-04-05T10:24:01.620Z,8.00
2023-04-05T10:28:23.256Z,6.25
2023-04-05T10:32:40.253Z,9.27
2023-04-05T10:37:01.411Z,11.43
2023-04-05T10:41:16.750Z,6.32
2023-04-05T10:45:29.175Z,6.55
2023-04-05T10:49:44.872Z,7.93
2023-04-05T10:53:59.404Z,4.75
2023-04-05T10:58:14.323Z,8.18
2023-04-05T11:02:28.234Z,5.72
2023-04-05T11:06:39.812Z,8.88
2023-04-05T11:10:53.308Z,9.57
2023-04-05T11:15:30.200Z,6.65
2023-04-05T11:19:48.472Z,6.85
2023-04-05T11:24:12.000Z,5.10
2023-04-05T11:28:25.606Z,6.30
2023-04-05T11:32:42.781Z,5.88
2023-04-05T11:36:54.362Z,6.53
2023-04-05T11:41:20.626Z,4.97
2023-04-05T11:45:33.251Z,5.97
2023-04-05T11:49:50.339Z,5.85
2023-04-05T11:54:02.015Z,5.45
2023-04-05T11:58:24.029Z,7.13
2023-04-05T12:02:35.574Z,6.53
2023-04-05T12:06:48.193Z,7.82
2023-04-05T12:11:02.182Z,6.30
2023-04-05T12:15:15.241Z,6.55
2023-04-05T12:19:30.067Z,5.47
2023-04-05T12:23:41.595Z,7.07
2023-04-05T12:27:53.298Z,6.38
2023-04-05T12:32:05.051Z,6.13
2023-04-05T12:36:16.714Z,5.95
2023-04-05T12:40:30.167Z,6.82
2023-04-05T12:44:43.537Z,6.88
2023-04-05T12:48:55.219Z,5.90
2023-04-05T12:53:06.984Z,7.65
2023-04-05T12:57:18.617Z,4.95
2023-04-05T13:01:31.203Z,8.52
2023-04-05T13:05:43.073Z,8.15
2023-04-05T13:09:54.828Z,5.63
2023-04-05T13:14:06.994Z,8.68
2023-04-05T13:18:18.550Z,5.25
2023-04-05T13:22:30.123Z,6.22
2023-04-05T13:26:41.664Z,6.25
2023-04-05T13:30:54.537Z,8.20
2023-04-05T13:35:06.579Z,6.35
2023-04-05T13:39:18.178Z,6.47
2023-04-05T13:43:31.153Z,5.97
2023-04-05T13:47:42.983Z,7.05
2023-04-05T13:51:54.470Z,6.22
2023-04-05T13:56:06.879Z,5.45
2023-04-05T14:00:18.679Z,6.53
2023-04-05T14:04:30.507Z,5.20
2023-04-05T14:08:42.025Z,5.25
2023-04-05T14:12:53.532Z,5.07
2023-04-05T14:17:05.170Z,6.22
2023-04-05T14:21:16.719Z,5.80
2023-04-05T14:25:28.243Z,4.88
2023-04-05T14:29:39.767Z,5.50
2023-04-05T14:33:52.124Z,5.20
2023-04-05T14:38:03.630Z,5.03
2023-04-05T14:42:15.293Z,5.10
2023-04-05T14:46:26.942Z,5.10
2023-04-05T14:50:38.598Z,5.65
2023-04-05T14:54:50.492Z,4.85
2023-04-05T14:59:02.643Z,6.28
2023-04-05T15:03:14.314Z,5.65
2023-04-05T15:07:26.574Z,5.40
2023-04-05T15:11:39.271Z,5.53
2023-04-05T15:15:50.897Z,6.35
2023-04-05T15:20:02.601Z,9.68
2023-04-05T15:24:14.159Z,5.45
2023-04-05T15:28:25.734Z,5.97
2023-04-05T15:32:37.943Z,5.18
2023-04-05T15:36:49.612Z,4.90
2023-04-05T15:41:01.110Z,5.65
2023-04-05T15:45:12.694Z,5.10
2023-04-05T15:49:24.392Z,5.30
2023-04-05T15:53:35.900Z,6.70
2023-04-05T15:57:49.432Z,6.25
2023-04-05T16:02:01.004Z,6.38
2023-04-05T16:06:12.582Z,5.32
2023-04-05T16:10:24.872Z,7.63
2023-04-05T16:14:36.736Z,5.55
2023-04-05T16:18:48.229Z,5.05
2023-04-05T16:22:59.722Z,4.65
2023-04-05T16:27:11.321Z,4.93
2023-04-05T16:31:23.094Z,5.45
2023-04-05T16:35:34.640Z,5.13
2023-04-05T16:39:46.480Z,5.78
2023-04-05T16:43:57.979Z,4.80
2023-04-05T16:48:10.277Z,5.13
2023-04-05T16:52:22.106Z,4.72
2023-04-05T16:56:33.804Z,6.28
2023-04-05T17:00:45.305Z,6.45
2023-04-05T17:04:56.856Z,4.65
2023-04-05T17:09:08.476Z,5.28
2023-04-05T17:13:19.973Z,7.00
2023-04-05T17:17:31.478Z,5.90
2023-04-05T17:21:47.209Z,5.75
2023-04-05T17:25:58.705Z,6.35
2023-04-05T17:30:10.644Z,4.40
2023-04-05T17:34:22.537Z,4.97
2023-04-05T17:38:34.068Z,5.47
2023-04-05T17:42:45.573Z,5.68
2023-04-05T17:47:07.985Z,3.28
2023-04-05T17:51:20.869Z,5.35
2023-04-05T17:55:33.781Z,4.63
2023-04-05T17:59:45.439Z,4.63
2023-04-05T18:03:57.054Z,4.68
2023-04-05T18:08:08.723Z,2.88
2023-04-05T18:12:20.577Z,13.98
2023-04-05T18:16:32.407Z,6.05
2023-04-05T18:20:44.144Z,3.35
2023-04-05T18:24:55.666Z,3.42
2023-04-05T18:29:07.457Z,3.75
2023-04-05T18:33:19.113Z,3.28
2023-04-05T18:37:30.625Z,3.58
2023-04-05T18:41:42.170Z,4.72
2023-04-05T18:45:54.445Z,3.15
2023-04-05T18:50:09.798Z,3.53
2023-04-05T18:54:21.310Z,5.82
2023-04-05T18:58:32.868Z,13.15
2023-04-05T19:02:44.488Z,16.25
2023-04-05T19:06:57.582Z,18.92
2023-04-05T19:11:13.263Z,18.63
2023-04-05T19:15:25.557Z,14.65
2023-04-05T19:19:37.055Z,20.10
2023-04-05T19:23:48.775Z,20.67
2023-04-05T19:28:01.231Z,19.42
2023-04-05T19:32:12.861Z,7.97
2023-04-05T19:36:24.568Z,10.27
2023-04-05T19:40:37.585Z,6.57
2023-04-05T19:44:50.827Z,6.13
2023-04-05T19:49:09.146Z,7.78
2023-04-05T19:53:51.032Z,6.60
2023-04-05T19:58:11.704Z,7.35
2023-04-05T20:02:36.851Z,7.93
2023-04-05T20:06:55.735Z,5.75
2023-04-05T20:11:28.097Z,5.15
2023-04-05T20:15:40.144Z,4.88
2023-04-05T20:19:57.702Z,5.88
2023-04-05T20:24:14.245Z,7.00
2023-04-05T20:28:55.828Z,5.28
2023-04-05T20:33:08.229Z,6.00
2023-04-05T20:37:19.801Z,6.93
2023-04-05T20:41:31.686Z,6.75
2023-04-05T20:45:43.502Z,6.10
2023-04-05T20:49:54.966Z,6.95
2023-04-05T20:54:06.412Z,6.63
2023-04-05T20:58:17.924Z,6.20
2023-04-05T21:02:29.542Z,7.25
2023-04-05T21:06:41.279Z,5.70
2023-04-05T21:10:53.921Z,5.27
2023-04-05T21:15:06.284Z,7.03
2023-04-05T21:19:17.717Z,6.00
2023-04-05T21:23:31.583Z,5.80
2023-04-05T21:27:44.269Z,7.83
